Time;durP1;ratioP1;P1;durP2;ratioP2;P2;SDS_P1;SDS_P2;PMS_P1;PMS_P2;Temp;Humidity;BMP_temperature;BMP_pressure;BME280_temperature;BME280_humidity;BME280_pressure;Samples;Min_cycle;Max_cycle;Signal;HPM_P1;HPM_P2
2022/04/27 00:00:39;;;;;;;4.07;2.87;;;14.20;92.90;;;12.59;66.24;100003.16;10396344;28;98269;-86
2022/04/27 00:05:42;;;;;;;6.43;3.30;;;14.10;92.80;;;12.49;66.62;99999.09;10369769;27;97556;-86
2022/04/27 00:10:45;;;;;;;7.60;3.57;;;14.10;93.00;;;12.39;67.25;99999.38;10362678;28;96518;-86
2022/04/27 00:15:48;;;;;;;6.87;2.87;;;14.00;93.50;;;12.28;67.31;99989.16;10344701;28;96578;-86
2022/04/27 00:20:51;;;;;;;5.83;3.00;;;13.90;93.90;;;12.15;67.99;99981.81;10377718;28;96404;-86
2022/04/27 00:25:54;;;;;;;5.23;3.10;;;13.70;94.70;;;12.05;69.04;99990.09;10385919;28;96558;-86
2022/04/27 00:30:57;;;;;;;5.77;3.50;;;13.70;95.20;;;11.96;68.38;99996.50;10358603;28;96572;-86
2022/04/27 00:36:00;;;;;;;4.03;2.67;;;13.60;95.40;;;11.85;68.33;99996.94;10394469;28;96879;-86
2022/04/27 00:41:03;;;;;;;8.00;3.37;;;13.40;95.60;;;11.78;68.78;99995.97;10358681;28;97742;-85
2022/04/27 00:46:06;;;;;;;4.47;3.20;;;13.40;95.90;;;11.70;68.33;100009.38;10381198;28;96702;-84
2022/04/27 00:51:16;;;;;;;6.13;3.40;;;13.30;95.90;;;11.67;68.61;100021.19;10387677;28;96474;-84
2022/04/27 00:56:21;;;;;;;3.97;2.80;;;13.20;96.60;;;11.63;68.55;100035.84;10403689;28;96613;-85
2022/04/27 01:01:24;;;;;;;7.73;3.00;;;13.20;96.60;;;11.64;68.19;100039.38;10336030;28;97458;-86
2022/04/27 01:06:29;;;;;;;4.33;3.00;;;13.10;97.00;;;11.60;68.68;100040.72;10350160;28;96487;-85
2022/04/27 01:11:35;;;;;;;5.90;3.30;;;13.00;97.50;;;11.60;69.03;100043.38;10346519;28;97527;-85
2022/04/27 01:16:38;;;;;;;4.30;3.33;;;13.00;97.80;;;11.62;69.52;100038.72;10363145;28;97262;-85
2022/04/27 01:21:41;;;;;;;6.60;3.73;;;13.00;98.20;;;11.68;69.18;100053.97;10384861;28;96375;-85
2022/04/27 01:26:44;;;;;;;6.00;3.80;;;13.10;98.10;;;11.68;69.36;100044.13;10338397;28;98003;-85
2022/04/27 01:31:47;;;;;;;6.83;3.40;;;13.10;98.40;;;11.74;69.07;100038.09;10358870;28;97151;-85
2022/04/27 01:36:50;;;;;;;7.63;4.33;;;13.20;98.70;;;11.81;69.18;100038.25;10337190;28;96643;-85
2022/04/27 01:41:53;;;;;;;6.17;4.53;;;13.20;98.50;;;11.86;68.89;100030.53;10298159;28;96907;-85
2022/04/27 01:46:57;;;;;;;5.90;3.90;;;13.30;98.60;;;11.87;68.79;100037.50;10316982;28;97305;-85
2022/04/27 01:57:22;;;;;;;5.60;4.03;;;13.40;98.40;;;11.93;68.78;100046.63;10310065;28;96974;-85
2022/04/27 02:02:25;;;;;;;8.10;3.90;;;13.40;98.40;;;11.95;68.94;100049.94;10310267;28;98320;-85
2022/04/27 02:07:28;;;;;;;6.47;4.57;;;13.40;98.40;;;11.96;69.44;100049.75;10350237;28;96571;-85
2022/04/27 02:12:31;;;;;;;6.90;4.33;;;13.50;98.50;;;11.97;69.71;100048.75;10342405;28;97301;-86
2022/04/27 02:17:35;;;;;;;6.07;3.87;;;13.50;98.90;;;11.97;70.56;100054.06;10323735;28;97330;-85
2022/04/27 02:22:40;;;;;;;9.40;5.23;;;13.50;99.30;;;11.97;70.98;100063.91;10312203;28;96465;-85
2022/04/27 02:27:43;;;;;;;103.37;11.53;;;13.50;99.70;;;11.95;71.49;100056.09;10293871;28;96529;-85
2022/04/27 02:32:47;;;;;;;99.57;10.27;;;13.50;99.90;;;11.90;71.35;100058.47;10311331;28;96762;-85
2022/04/27 02:37:50;;;;;;;19.20;5.13;;;13.50;99.90;;;11.87;71.77;100061.47;10364175;28;96562;-85
2022/04/27 02:42:53;;;;;;;25.57;5.83;;;13.40;99.90;;;11.86;72.22;100059.84;10347616;28;96848;-85
2022/04/27 02:47:56;;;;;;;15.90;5.77;;;13.40;99.90;;;11.87;72.13;100053.50;10348857;28;98834;-85
2022/04/27 02:52:59;;;;;;;10.67;6.33;;;13.40;99.90;;;11.86;72.61;100059.00;10341391;28;97889;-86
2022/04/27 02:58:02;;;;;;;23.17;5.83;;;13.40;99.90;;;11.85;73.01;100068.00;10361640;28;96643;-85
2022/04/27 03:03:07;;;;;;;19.40;5.53;;;13.40;99.90;;;11.82;73.01;100063.06;10352792;28;96536;-86
2022/04/27 03:08:11;;;;;;;27.47;5.93;;;13.40;99.90;;;11.77;73.12;100059.06;10384932;28;96733;-86
2022/04/27 03:13:14;;;;;;;12.03;5.43;;;13.30;99.90;;;11.71;73.50;100064.25;10366610;28;97674;-85
2022/04/27 03:18:17;;;;;;;12.67;6.07;;;13.30;99.90;;;11.65;73.37;100054.34;10353771;28;98599;-85
2022/04/27 03:23:19;;;;;;;20.90;5.57;;;13.30;99.90;;;11.62;73.71;100071.47;10319035;28;96572;-85
2022/04/27 03:28:22;;;;;;;7.27;5.27;;;13.20;99.90;;;11.58;74.60;100072.03;10354349;28;96428;-85
2022/04/27 03:33:26;;;;;;;10.00;6.07;;;13.20;99.90;;;11.53;75.01;100075.22;10353795;28;96658;-85
2022/04/27 03:38:28;;;;;;;16.10;6.00;;;13.10;99.90;;;11.51;75.05;100083.38;10333797;28;96474;-85
2022/04/27 03:43:32;;;;;;;16.17;5.97;;;13.10;99.90;;;11.48;75.42;100090.88;10321046;28;96596;-85
2022/04/27 03:48:35;;;;;;;32.07;6.60;;;13.00;99.90;;;11.44;75.99;100093.03;10360127;28;97334;-86
2022/04/27 03:53:38;;;;;;;23.33;6.70;;;13.00;99.90;;;11.39;76.16;100099.91;10349140;28;96473;-85
2022/04/27 03:58:41;;;;;;;18.60;6.10;;;12.90;99.90;;;11.34;76.53;100100.44;10355558;28;96587;-86
2022/04/27 04:03:45;;;;;;;13.53;6.23;;;12.80;99.90;;;11.31;76.62;100100.78;10376028;28;96512;-85
2022/04/27 04:08:48;;;;;;;32.87;6.43;;;12.80;99.90;;;11.29;76.74;100108.13;10373906;28;96498;-85
2022/04/27 04:13:51;;;;;;;8.60;3.73;;;12.80;99.90;;;11.29;76.53;100107.28;10374407;28;98862;-85
2022/04/27 04:18:54;;;;;;;16.20;3.33;;;12.70;99.90;;;11.26;76.46;100113.78;10359743;27;98506;-84
2022/04/27 04:23:57;;;;;;;5.77;2.53;;;12.70;99.90;;;11.27;76.24;100118.06;10338301;28;96553;-84
2022/04/27 04:29:00;;;;;;;8.53;3.03;;;12.70;99.90;;;11.25;75.75;100122.75;10335217;28;96599;-84
2022/04/27 04:34:04;;;;;;;5.40;2.80;;;12.70;99.90;;;11.24;75.75;100121.94;10350457;28;96737;-84
2022/04/27 04:39:07;;;;;;;15.23;3.40;;;12.70;99.90;;;11.23;75.77;100132.75;10361537;28;97307;-84
2022/04/27 04:44:10;;;;;;;12.03;4.23;;;12.70;99.90;;;11.20;75.77;100135.75;10352887;28;96665;-84
2022/04/27 04:49:13;;;;;;;13.73;7.07;;;12.70;99.90;;;11.22;75.72;100131.94;10396923;28;98521;-84
2022/04/27 04:54:16;;;;;;;18.97;7.07;;;12.70;99.90;;;11.26;75.79;100132.38;10382801;27;96602;-84
2022/04/27 04:59:19;;;;;;;14.43;5.90;;;12.70;99.90;;;11.32;75.84;100145.00;10384225;28;97275;-84
2022/04/27 05:04:24;;;;;;;10.63;5.80;;;12.80;99.90;;;11.36;75.47;100135.66;10400566;27;96629;-84
2022/04/27 05:09:27;;;;;;;15.77;6.10;;;12.80;99.90;;;11.45;75.29;100149.75;10405507;27;96757;-84
2022/04/27 05:14:30;;;;;;;13.43;5.93;;;12.90;99.90;;;11.56;74.90;100149.34;10397863;28;97542;-84
2022/04/27 05:19:35;;;;;;;14.37;5.33;;;13.00;99.90;;;11.68;74.29;100157.78;10409179;27;97632;-84
2022/04/27 05:24:38;;;;;;;21.33;5.37;;;13.10;99.90;;;11.80;74.05;100143.88;10413644;27;96576;-84
2022/04/27 05:35:03;;;;;;;5.37;1.83;;;13.40;99.90;;;12.03;72.46;100159.06;10420075;27;97643;-84
2022/04/27 05:40:08;;;;;;;1.33;0.43;;;13.40;99.90;;;12.12;71.89;100158.00;10427378;27;97019;-85
2022/04/27 05:45:11;;;;;;;0.30;0.30;;;13.50;99.90;;;12.26;71.83;100170.53;10420427;27;96524;-85
2022/04/27 05:50:14;;;;;;;0.30;0.30;;;13.60;99.90;;;12.36;71.20;100172.13;10399982;27;97283;-84
2022/04/27 05:55:19;;;;;;;0.23;0.23;;;13.80;99.90;;;12.35;70.54;100168.63;10416125;27;96733;-84
2022/04/27 06:00:23;;;;;;;0.67;0.43;;;13.80;99.90;;;12.46;70.49;100178.03;10409458;27;96835;-83
2022/04/27 06:05:26;;;;;;;1.60;0.20;;;13.90;99.90;;;12.57;70.53;100172.25;10386223;27;96598;-84
2022/04/27 06:10:29;;;;;;;0.10;0.10;;;14.00;99.90;;;12.67;70.12;100188.00;10377599;28;96523;-84
2022/04/27 06:15:32;;;;;;;0.20;0.20;;;14.10;99.90;;;12.89;70.04;100187.09;10374186;28;96682;-84
2022/04/27 06:20:35;;;;;;;0.20;0.20;;;14.30;99.90;;;13.08;68.85;100185.72;10404645;27;96574;-84
2022/04/27 06:25:40;;;;;;;0.10;0.10;;;14.40;99.90;;;13.18;67.46;100188.94;10413991;27;98548;-84
2022/04/27 06:30:43;;;;;;;1.47;0.43;;;14.60;99.90;;;13.22;66.95;100192.94;10422305;27;96630;-84
2022/04/27 06:35:47;;;;;;;0.20;0.17;;;14.60;99.90;;;13.38;66.98;100198.06;10402989;28;96635;-85
2022/04/27 06:40:50;;;;;;;15.00;0.93;;;14.80;99.90;;;13.56;66.83;100200.34;10442606;27;96486;-84
2022/04/27 06:45:53;;;;;;;1.23;0.60;;;14.90;99.90;;;13.71;66.22;100196.81;10385991;27;98202;-84
2022/04/27 06:50:56;;;;;;;0.17;0.17;;;15.00;99.90;;;13.84;66.14;100191.59;10376054;28;96566;-85
2022/04/27 06:55:59;;;;;;;0.17;0.17;;;15.20;99.80;;;13.99;65.44;100205.75;10380056;27;97369;-84
2022/04/27 07:01:04;;;;;;;0.10;0.10;;;15.30;99.20;;;14.05;64.63;100209.50;10404812;27;96784;-84
2022/04/27 07:06:07;;;;;;;0.00;0.00;;;15.40;97.40;;;14.10;64.77;100207.94;10424982;27;97684;-85
2022/04/27 07:11:10;;;;;;;0.30;0.30;;;15.40;98.50;;;14.31;64.99;100214.28;10425329;27;96303;-85
2022/04/27 07:16:13;;;;;;;0.00;0.00;;;15.60;98.50;;;14.58;64.92;100216.19;10429905;27;96678;-84
2022/04/27 07:21:16;;;;;;;0.25;0.25;;;15.80;98.10;;;14.69;63.30;100213.00;10419498;27;96797;-84
2022/04/27 07:26:20;;;;;;;0.32;0.32;;;16.00;97.10;;;15.08;62.23;100216.97;10408321;27;96652;-84
2022/04/27 07:31:23;;;;;;;0.32;0.32;;;16.30;95.40;;;15.38;61.04;100228.25;10374214;27;97204;-83
2022/04/27 07:36:26;;;;;;;0.25;0.25;;;16.50;95.30;;;15.56;60.16;100219.69;10381949;27;99255;-84
2022/04/27 07:41:33;;;;;;;2.08;0.73;;;16.80;94.90;;;15.49;59.21;100230.38;10413128;27;96852;-84
2022/04/27 07:46:36;;;;;;;1.05;0.68;;;16.90;93.00;;;15.51;59.11;100228.31;10409118;27;98214;-82
2022/04/27 07:51:40;;;;;;;0.17;0.17;;;16.90;92.80;;;15.60;59.33;100231.66;10447910;27;96492;-84
2022/04/27 07:56:47;;;;;;;0.00;0.00;;;17.00;92.80;;;15.63;59.03;100241.97;10467596;27;96554;-85
2022/04/27 08:01:50;;;;;;;0.10;0.10;;;17.00;92.20;;;15.65;58.27;100245.31;10394340;27;96606;-83
2022/04/27 08:07:18;;;;;;;0.25;0.25;;;17.00;91.40;;;15.62;58.68;100244.84;10412085;28;96797;-84
2022/04/27 08:12:21;;;;;;;0.03;0.03;;;17.00;91.30;;;15.63;59.13;100241.97;10414634;27;96729;-84
2022/04/27 08:17:24;;;;;;;0.20;0.20;;;17.00;91.40;;;15.41;58.96;100253.78;10402676;27;98454;-83
2022/04/27 08:22:30;;;;;;;0.10;0.10;;;16.90;90.90;;;15.29;59.60;100258.03;10415142;28;96567;-82
2022/04/27 08:27:33;;;;;;;0.10;0.10;;;16.80;91.30;;;15.15;60.61;100257.97;10416308;27;97325;-82
2022/04/27 08:32:36;;;;;;;0.47;0.20;;;16.60;91.60;;;15.04;61.41;100253.16;10412204;27;96634;-82
2022/04/27 08:37:38;;;;;;;0.90;0.43;;;16.50;92.00;;;14.96;61.39;100264.84;10378929;28;96416;-82
2022/04/27 08:42:42;;;;;;;0.50;0.50;;;16.40;92.10;;;14.79;62.04;100260.78;10379489;27;96599;-83
2022/04/27 08:47:48;;;;;;;0.00;0.00;;;16.30;92.40;;;14.62;62.34;100268.25;10364241;27;96493;-82
2022/04/27 08:52:51;;;;;;;0.17;0.17;;;16.20;92.60;;;14.47;63.06;100262.19;10420093;27;96474;-83
2022/04/27 08:58:17;;;;;;;0.00;0.00;;;16.10;92.80;;;14.29;63.06;100267.94;10421670;28;96449;-82
2022/04/27 09:03:42;;;;;;;0.00;0.00;;;15.90;93.00;;;14.10;63.95;100272.06;10413144;27;96677;-83
2022/04/27 09:08:49;;;;;;;0.00;0.00;;;15.60;93.50;;;13.96;65.10;100277.41;10391457;27;96550;-82
2022/04/27 09:13:59;;;;;;;0.10;0.10;;;15.50;94.30;;;13.82;65.68;100276.44;10399646;27;96735;-83
2022/04/27 09:24:24;;;;;;;0.30;0.30;;;15.30;94.70;;;13.77;65.22;100271.66;10392008;27;96735;-83
2022/04/27 09:29:27;;;;;;;0.10;0.10;;;15.30;94.90;;;13.79;65.21;100284.81;10418635;28;96451;-83
2022/04/27 09:34:47;;;;;;;0.10;0.10;;;15.20;94.90;;;13.88;65.03;100273.84;10404888;27;96744;-83
2022/04/27 09:40:04;;;;;;;0.00;0.00;;;15.30;95.10;;;13.93;63.91;100278.63;10377626;28;96517;-83
2022/04/27 09:45:19;;;;;;;0.00;0.00;;;15.30;94.40;;;14.06;64.50;100275.28;10383884;27;96851;-84
2022/04/27 09:50:22;;;;;;;0.13;0.05;;;15.50;94.70;;;14.07;63.22;100271.59;10382192;27;97429;-84
2022/04/27 09:55:25;;;;;;;0.50;0.40;;;15.50;94.20;;;14.09;63.42;100274.91;10360544;27;96534;-84
2022/04/27 10:00:30;;;;;;;0.45;0.10;;;15.50;94.20;;;14.15;63.14;100275.00;10418695;27;97249;-83
2022/04/27 10:05:33;;;;;;;0.50;0.43;;;15.50;93.70;;;14.11;63.32;100278.22;10392225;27;97168;-84
2022/04/27 10:10:47;;;;;;;1.90;0.70;;;15.60;93.70;;;14.05;63.08;100271.78;10449288;27;96480;-83
2022/04/27 10:15:50;;;;;;;0.17;0.10;;;15.50;93.60;;;14.01;63.62;100273.16;10429669;27;96881;-84
2022/04/27 10:20:53;;;;;;;0.47;0.47;;;15.50;93.90;;;14.10;64.10;100290.75;10367773;27;96710;-84
2022/04/27 10:26:08;;;;;;;1.45;0.85;;;15.50;94.30;;;14.02;64.73;100280.16;10400215;27;96729;-84
2022/04/27 10:31:12;;;;;;;0.20;0.07;;;15.50;94.60;;;14.05;65.47;100284.31;10388415;27;97271;-84
2022/04/27 10:36:27;;;;;;;0.00;0.00;;;15.50;94.90;;;14.00;66.11;100292.91;10395263;27;99249;-85
2022/04/27 10:41:30;;;;;;;0.10;0.10;;;15.50;95.70;;;14.02;67.36;100295.38;10398802;27;96929;-84
2022/04/27 10:46:43;;;;;;;0.30;0.30;;;15.50;96.60;;;13.90;67.82;100287.00;10399119;27;96729;-84
2022/04/27 10:52:07;;;;;;;0.07;0.07;;;15.40;96.90;;;14.00;67.86;100298.25;10399182;27;98403;-85
2022/04/27 10:57:16;;;;;;;1.20;0.20;;;15.40;97.60;;;14.13;68.09;100301.06;10385769;27;96551;-85
2022/04/27 11:02:40;;;;;;;0.00;0.00;;;15.60;97.80;;;14.13;67.99;100298.38;10432840;27;97652;-85
2022/04/27 11:07:48;;;;;;;0.65;0.65;;;15.50;98.30;;;14.16;67.94;100291.84;10433233;27;96713;-85
2022/04/27 11:12:54;;;;;;;0.40;0.33;;;15.50;98.30;;;14.17;67.96;100288.97;10456221;27;96701;-85
2022/04/27 11:18:04;;;;;;;0.33;0.33;;;15.50;98.70;;;14.18;68.14;100295.97;10389070;27;97059;-85
2022/04/27 11:23:20;;;;;;;0.10;0.10;;;15.50;99.40;;;14.20;68.35;100293.09;10397953;27;98139;-85
2022/04/27 11:28:23;;;;;;;0.17;0.17;;;15.50;99.60;;;14.13;68.19;100298.38;10390833;27;98836;-85
2022/04/27 11:33:26;;;;;;;0.13;0.07;;;15.50;99.70;;;14.12;68.76;100295.91;10391916;28;97093;-85
2022/04/27 11:38:37;;;;;;;0.00;0.00;;;15.50;99.90;;;14.10;69.14;100298.78;10402371;27;97246;-86
2022/04/27 11:43:40;;;;;;;0.27;0.27;;;15.50;99.90;;;13.99;69.81;100306.44;10427915;27;96644;-85
2022/04/27 11:48:50;;;;;;;0.10;0.10;;;15.30;99.90;;;13.86;70.50;100297.25;10405163;27;97651;-84
2022/04/27 11:53:54;;;;;;;0.55;0.55;;;15.20;99.90;;;13.81;70.65;100296.16;10382279;27;96672;-85
2022/04/27 11:59:07;;;;;;;0.47;0.43;;;15.10;99.90;;;13.65;71.28;100306.03;10404978;27;97622;-85
2022/04/27 12:04:12;;;;;;;0.00;0.00;;;15.00;99.90;;;13.53;72.42;100302.16;10423365;27;96621;-86
2022/04/27 12:09:17;;;;;;;0.00;0.00;;;14.80;99.90;;;13.44;73.60;100302.44;10400612;27;96541;-85
2022/04/27 12:14:20;;;;;;;3.83;0.33;;;14.80;99.90;;;13.34;74.46;100295.53;10388845;27;96578;-85
2022/04/27 12:19:32;;;;;;;0.80;0.63;;;14.70;99.90;;;13.25;74.83;100303.78;10417026;27;97146;-86
2022/04/27 12:24:46;;;;;;;0.10;0.00;;;14.60;99.90;;;13.13;75.73;100298.03;10446005;27;97447;-85
2022/04/27 12:29:48;;;;;;;0.07;0.07;;;14.40;99.90;;;13.03;77.16;100301.00;10447579;27;96433;-86
2022/04/27 12:40:14;;;;;;;0.13;0.13;;;14.20;99.90;;;12.78;79.35;100302.22;10430606;27;96527;-87
2022/04/27 12:45:17;;;;;;;0.27;0.27;;;14.10;99.90;;;12.66;79.97;100301.00;10380067;27;96732;-88
2022/04/27 12:50:20;;;;;;;0.40;0.40;;;14.00;99.90;;;12.56;81.02;100301.22;10379955;27;97149;-88
2022/04/27 12:55:23;;;;;;;0.57;0.57;;;13.90;99.90;;;12.47;81.76;100296.94;10361540;28;96483;-87
2022/04/27 13:00:48;;;;;;;0.10;0.10;;;13.80;99.90;;;12.45;82.23;100297.13;10391267;27;96913;-88
2022/04/27 13:05:52;;;;;;;0.03;0.03;;;13.80;99.90;;;12.41;82.29;100295.81;10417747;27;97002;-87
2022/04/27 13:16:16;;;;;;;0.10;0.10;;;13.80;99.90;;;12.38;82.70;100290.84;10417078;28;96874;-87
2022/04/27 13:21:19;;;;;;;0.20;0.20;;;13.80;99.90;;;12.30;82.55;100301.56;10418718;27;98825;-87
2022/04/27 13:26:22;;;;;;;0.20;0.20;;;13.70;99.90;;;12.19;82.46;100293.97;10389830;27;98024;-87
2022/04/27 13:31:25;;;;;;;0.00;0.00;;;13.60;99.90;;;12.07;82.86;100298.88;10409437;27;98539;-87
2022/04/27 13:36:28;;;;;;;0.10;0.00;;;13.50;99.90;;;11.98;83.03;100305.22;10402816;27;97346;-86
2022/04/27 13:41:31;;;;;;;0.20;0.20;;;13.40;99.90;;;11.87;83.74;100301.13;10395043;27;98415;-87
2022/04/27 13:46:34;;;;;;;0.30;0.30;;;13.30;99.90;;;11.75;84.56;100299.81;10429783;27;97395;-87
2022/04/27 13:51:39;;;;;;;4.07;0.97;;;13.20;99.90;;;11.65;84.48;100297.38;10430230;27;96592;-87
2022/04/27 13:56:42;;;;;;;0.40;0.40;;;13.10;99.90;;;11.67;85.38;100300.69;10387599;27;96619;-86
2022/04/27 14:01:45;;;;;;;4.97;0.50;;;13.00;99.90;;;11.67;85.59;100311.34;10415650;27;98343;-87
2022/04/27 14:06:50;;;;;;;1.13;1.03;;;13.00;99.90;;;11.65;85.84;100310.69;10406335;27;96639;-87
2022/04/27 14:22:37;;;;;;;;;;;13.00;99.90;;;11.44;86.75;100308.56;10423093;27;96801;-87
2022/04/27 14:27:40;;;;;;;0.53;0.53;;;12.90;99.90;;;11.30;86.91;100311.13;10383676;27;96556;-87
2022/04/27 14:32:43;;;;;;;0.40;0.40;;;12.70;99.90;;;11.20;87.46;100308.63;10376388;27;96630;-87
2022/04/27 14:37:47;;;;;;;1.80;1.40;;;12.70;99.90;;;11.15;88.05;100306.47;10404390;27;97105;-87
2022/04/27 14:42:51;;;;;;;1.20;1.20;;;12.50;99.90;;;11.08;88.45;100313.47;10403610;27;96457;-87
2022/04/27 14:47:55;;;;;;;1.10;1.07;;;12.50;99.90;;;11.04;88.95;100316.66;10433808;27;97345;-87
2022/04/27 14:52:58;;;;;;;2.00;1.00;;;12.40;99.90;;;10.98;89.30;100308.34;10445316;27;96627;-88
2022/04/27 14:58:01;;;;;;;0.40;0.40;;;12.40;99.90;;;10.96;89.54;100310.31;10412114;27;96563;-88
2022/04/27 15:03:05;;;;;;;0.93;0.83;;;12.40;99.90;;;10.92;89.92;100309.03;10398324;27;97633;-88
2022/04/27 15:08:08;;;;;;;0.30;0.30;;;12.40;99.90;;;10.93;90.48;100316.00;10399702;27;96629;-88
2022/04/27 15:13:11;;;;;;;0.40;0.40;;;12.40;99.90;;;10.92;90.38;100313.50;10420607;27;98235;-89
2022/04/27 15:18:16;;;;;;;0.53;0.53;;;12.40;99.90;;;10.90;90.63;100311.00;10394266;27;98294;-87
2022/04/27 15:23:19;;;;;;;0.77;0.53;;;12.40;99.90;;;10.88;90.82;100323.63;10386991;27;96976;-87
2022/04/27 15:28:22;;;;;;;0.20;0.20;;;12.30;99.90;;;10.89;90.97;100316.50;10398141;27;96736;-88
2022/04/27 15:33:25;;;;;;;0.13;0.13;;;12.30;99.90;;;10.85;91.25;100323.13;10386239;27;97323;-88
2022/04/27 15:38:28;;;;;;;0.00;0.00;;;12.30;99.90;;;10.82;91.41;100324.31;10395370;27;96562;-87
2022/04/27 15:43:31;;;;;;;0.30;0.30;;;12.30;99.90;;;10.79;91.99;100321.13;10408383;28;96771;-88
2022/04/27 15:48:53;;;;;;;;;;;12.30;99.90;;;10.76;92.19;100319.66;10408422;27;96568;-87
2022/04/27 15:53:56;;;;;;;0.40;0.10;;;12.20;99.90;;;10.68;92.76;100328.47;10410755;27;96707;-86
2022/04/27 15:59:04;;;;;;;0.03;0.03;;;12.20;99.90;;;10.59;93.54;100329.44;10363705;27;97816;-85
2022/04/27 16:04:09;;;;;;;0.20;0.20;;;12.10;99.90;;;10.53;94.07;100331.91;10399280;27;96907;-84
2022/04/27 16:09:13;;;;;;;0.40;0.40;;;12.00;99.90;;;10.45;94.75;100330.91;10374876;27;96612;-83
2022/04/27 16:14:18;;;;;;;0.33;0.33;;;12.00;99.90;;;10.39;95.54;100334.22;10400705;27;97628;-84
2022/04/27 16:19:21;;;;;;;0.63;0.37;;;11.90;99.90;;;10.34;95.92;100336.53;10380986;27;96701;-83
2022/04/27 16:24:24;;;;;;;0.00;0.00;;;11.80;99.90;;;10.32;96.49;100349.16;10394817;27;98044;-83
2022/04/27 16:29:27;;;;;;;0.00;0.00;;;11.80;99.90;;;10.30;96.79;100332.53;10412704;27;96778;-84
2022/04/27 16:34:31;;;;;;;0.00;0.00;;;11.80;99.90;;;10.27;97.12;100338.19;10378874;27;97447;-85
2022/04/27 16:39:34;;;;;;;0.37;0.20;;;11.70;99.90;;;10.24;97.45;100327.88;10399775;27;97658;-86
2022/04/27 16:44:38;;;;;;;0.20;0.20;;;11.70;99.90;;;10.24;97.61;100329.69;10403388;27;96834;-87
2022/04/27 16:49:41;;;;;;;0.30;0.20;;;11.60;99.90;;;10.23;98.15;100334.19;10410679;27;96677;-88
2022/04/27 16:54:46;;;;;;;0.20;0.20;;;11.60;99.90;;;10.24;98.55;100346.47;10393210;27;97295;-88
2022/04/27 17:00:51;;;;;;;0.20;0.20;;;11.60;99.90;;;10.24;99.17;100351.78;10400206;28;96512;-88
2022/04/27 17:05:15;;;;;;;0.37;0.20;;;11.60;99.90;;;10.22;99.48;100351.09;10405650;27;96856;-87
2022/04/27 17:10:18;;;;;;;0.10;0.10;;;11.60;99.90;;;10.21;99.87;100361.88;10398103;27;96524;-89
2022/04/27 17:15:21;;;;;;;0.30;0.30;;;11.60;99.90;;;10.18;100.00;100358.53;10381698;27;96664;-91
2022/04/27 17:20:25;;;;;;;0.00;0.00;;;11.60;99.90;;;10.18;100.00;100355.88;10399873;27;97791;-90
2022/04/27 17:30:50;;;;;;;0.00;0.00;;;11.60;99.90;;;10.18;100.00;100368.31;10407202;27;97437;-89
2022/04/27 17:35:53;;;;;;;0.23;0.23;;;11.60;99.90;;;10.21;100.00;100364.53;10383788;27;96670;-89
2022/04/27 17:40:56;;;;;;;0.30;0.10;;;11.60;99.90;;;10.22;100.00;100368.84;10440064;27;96595;-90
2022/04/27 17:45:59;;;;;;;0.00;0.00;;;11.70;99.90;;;10.23;100.00;100371.38;10362348;27;97110;-88
2022/04/27 17:51:02;;;;;;;0.10;0.10;;;11.70;99.90;;;10.24;100.00;100373.03;10377650;27;96662;-88
2022/04/27 17:56:05;;;;;;;0.00;0.00;;;11.70;99.90;;;10.27;100.00;100371.88;10376337;28;96570;-87
2022/04/27 18:01:08;;;;;;;0.00;0.00;;;11.80;99.90;;;10.26;100.00;100371.06;10378133;27;98462;-87
2022/04/27 18:06:12;;;;;;;0.10;0.00;;;11.80;99.90;;;10.27;100.00;100380.69;10406587;27;96618;-87
2022/04/27 18:11:15;;;;;;;0.10;0.10;;;11.80;99.90;;;10.26;100.00;100381.69;10389314;27;96678;-88
2022/04/27 18:16:19;;;;;;;0.20;0.20;;;11.80;99.90;;;10.29;100.00;100397.28;10418782;27;96599;-87
2022/04/27 18:21:22;;;;;;;1.27;0.93;;;11.80;99.90;;;10.29;100.00;100405.25;10408898;27;98799;-87
2022/04/27 18:26:26;;;;;;;0.00;0.00;;;11.80;99.90;;;10.30;100.00;100403.44;10438708;27;97114;-86
2022/04/27 18:31:29;;;;;;;0.77;0.33;;;11.80;99.90;;;10.30;100.00;100411.41;10427737;27;97798;-87
2022/04/27 18:36:34;;;;;;;2.07;0.83;;;11.80;99.90;;;10.29;100.00;100412.38;10383202;27;96808;-87
2022/04/27 18:41:37;;;;;;;0.00;0.00;;;11.80;99.90;;;10.29;100.00;100407.91;10383371;27;97609;-87
2022/04/27 18:52:01;;;;;;;0.13;0.13;;;11.80;99.90;;;10.25;100.00;100433.13;10427824;27;98434;-87
2022/04/27 18:57:04;;;;;;;0.00;0.00;;;11.70;99.90;;;10.22;100.00;100430.75;10420172;27;98228;-87
2022/04/27 19:02:09;;;;;;;0.60;0.50;;;11.70;99.90;;;10.23;100.00;100426.28;10405619;27;96784;-87
2022/04/27 19:07:13;;;;;;;0.20;0.20;;;11.80;99.90;;;10.22;100.00;100432.59;10398664;27;97887;-86
2022/04/27 19:12:19;;;;;;;0.30;0.30;;;11.70;99.90;;;10.19;100.00;100425.75;10415492;27;96547;-86
2022/04/27 19:17:22;;;;;;;0.00;0.00;;;11.70;99.90;;;10.17;100.00;100436.53;10415736;27;96632;-87
2022/04/27 19:22:25;;;;;;;0.00;0.00;;;11.70;99.90;;;10.16;100.00;100434.06;10407818;27;97490;-87
2022/04/27 19:27:29;;;;;;;0.20;0.20;;;11.70;99.90;;;10.14;100.00;100436.88;10418370;28;96485;-86
2022/04/27 19:32:32;;;;;;;0.00;0.00;;;11.60;99.90;;;10.13;100.00;100434.34;10383759;27;98834;-87
2022/04/27 19:37:37;;;;;;;0.10;0.10;;;11.60;99.90;;;10.11;100.00;100446.97;10406604;27;97420;-86
2022/04/27 19:42:40;;;;;;;0.00;0.00;;;11.60;99.90;;;10.10;100.00;100451.47;10411281;28;96397;-86
2022/04/27 19:47:48;;;;;;;0.00;0.00;;;11.60;99.90;;;10.06;100.00;100443.97;10412345;27;96630;-86
2022/04/27 19:52:52;;;;;;;0.10;0.10;;;11.60;99.90;;;10.03;100.00;100447.78;10408646;27;97563;-86
2022/04/27 19:57:58;;;;;;;0.00;0.00;;;11.60;99.90;;;10.02;100.00;100450.59;10410723;27;96682;-86
2022/04/27 20:03:02;;;;;;;0.10;0.10;;;11.50;99.90;;;9.98;100.00;100451.88;10400499;27;96686;-86
2022/04/27 20:08:06;;;;;;;0.00;0.00;;;11.50;99.90;;;9.98;100.00;100451.88;10404453;27;96674;-86
2022/04/27 20:13:09;;;;;;;0.00;0.00;;;11.50;99.90;;;9.98;100.00;100451.88;10398301;27;97862;-86
2022/04/27 20:18:12;;;;;;;0.00;0.00;;;11.50;99.90;;;9.99;100.00;100448.25;10407120;27;97601;-86
2022/04/27 20:23:16;;;;;;;0.00;0.00;;;11.50;99.90;;;10.00;100.00;100452.56;10407883;27;97321;-85
2022/04/27 20:28:19;;;;;;;0.00;0.00;;;11.50;99.90;;;10.00;100.00;100455.22;10423893;27;98704;-85
2022/04/27 20:33:22;;;;;;;0.00;0.00;;;11.50;99.90;;;10.00;100.00;100458.69;10349750;27;1323341;-85
2022/04/27 20:38:30;;;;;;;0.00;0.00;;;11.50;99.90;;;10.01;100.00;100459.53;10405474;27;98178;-85
2022/04/27 20:43:33;;;;;;;0.20;0.20;;;11.60;99.90;;;10.02;100.00;100469.19;10414930;27;98752;-85
2022/04/27 20:48:36;;;;;;;0.00;0.00;;;11.50;99.90;;;10.02;100.00;100474.50;10405347;27;98753;-85
2022/04/27 20:53:39;;;;;;;0.00;0.00;;;11.50;99.90;;;10.01;100.00;100473.63;10390028;27;96981;-85
2022/04/27 20:58:43;;;;;;;0.00;0.00;;;11.50;99.90;;;10.03;100.00;100478.81;10397855;27;96636;-85
2022/04/27 21:03:46;;;;;;;0.00;0.00;;;11.50;99.90;;;10.03;100.00;100484.13;10393281;27;98690;-85
2022/04/27 21:08:49;;;;;;;0.77;0.50;;;11.60;99.90;;;10.03;100.00;100495.56;10393130;27;97242;-84
2022/04/27 21:13:56;;;;;;;0.10;0.10;;;11.60;99.90;;;10.05;100.00;100495.41;10430070;27;98298;-85
2022/04/27 21:19:00;;;;;;;0.00;0.00;;;11.60;99.90;;;10.04;100.00;100491.91;10403361;27;97792;-85
2022/04/27 21:24:04;;;;;;;0.00;0.00;;;11.60;99.90;;;10.04;100.00;100494.56;10395449;27;96663;-84
2022/04/27 21:29:06;;;;;;;0.10;0.10;;;11.60;99.90;;;10.03;100.00;100498.22;10393821;27;96584;-84
2022/04/27 21:34:10;;;;;;;0.67;0.60;;;11.50;99.90;;;10.04;100.00;100504.38;10412418;27;97349;-84
2022/04/27 21:39:17;;;;;;;0.00;0.00;;;11.60;99.90;;;10.05;100.00;100511.34;10399461;27;98579;-84